Ocean Spirit of Moray — MVXF5 — position and weather

sailwx.info

Track history (hours):
 
Tides and Currents Weather Stations Pressure Air Temp Water Temp Dewpoint Dewpoint Depression Visibility Wind Speed Wind Dir Waves Ship Positions

Ocean Spirit of Moray (United Kingdom)

Ship's website: http://www.gordonstoun.org.uk/

Last reported at 2017-May-28 07:51 UTC. Time now 2017-May-29 11:27 UTC.
Position N 57°21' W 005°38'.

Length 24 m; draft 3 m.

Type: Sailing vessel. MMSI: 232007590.

Date/timePositionNaut miles runAvg speedWind from/ knotsBaromVisibWave heightAir tempDewpointWater temp
2017-May-28 07:51N 57°21' W 005°38'0 0.0
2017-May-28 07:16N 57°21' W 005°38'0 0.0
2017-May-28 07:00N 57°21' W 005°38'0 0.1
2017-May-28 06:25N 57°21' W 005°38'0 0.0
2017-May-28 05:57N 57°21' W 005°38'0 0.0
2017-May-28 05:24N 57°21' W 005°38'0 0.0
2017-May-28 05:00N 57°21' W 005°38'0 0.1
2017-May-28 04:30N 57°21' W 005°38'0 0.0
2017-May-28 03:54N 57°21' W 005°38'0 0.0
2017-May-28 03:30N 57°21' W 005°38'0 0.0
2017-May-28 02:57N 57°21' W 005°38'0 0.0
2017-May-28 02:30N 57°21' W 005°38'0 0.0
2017-May-28 01:57N 57°21' W 005°38'0 0.0
2017-May-28 01:30N 57°21' W 005°38'0 0.0
2017-May-28 00:51N 57°21' W 005°38'0 0.0
2017-May-28 00:30N 57°21' W 005°38'0 0.0
2017-May-27 23:54N 57°21' W 005°38'0 0.0
2017-May-27 23:28N 57°21' W 005°38'0 0.0
2017-May-27 22:57N 57°21' W 005°38'0 0.0
2017-May-27 22:28N 57°21' W 005°38'0 0.0
2017-May-27 21:54N 57°21' W 005°38'0 0.0
2017-May-27 21:28N 57°21' W 005°38'0 0.0
2017-May-27 20:57N 57°21' W 005°38'0 0.0
2017-May-27 20:27N 57°21' W 005°38'0 0.0
2017-May-27 17:34N 57°21' W 005°38'0 0.1
2017-May-27 17:24N 57°21' W 005°38'0 0.0
2017-May-27 15:48N 57°21' W 005°38'0 0.0
2017-May-27 15:30N 57°21' W 005°38'0 0.0
2017-May-27 13:43N 57°21' W 005°38'0 0.0
2017-May-27 12:54N 57°21' W 005°38'0 0.0
2017-May-27 10:48N 57°21' W 005°38'0 0.0
2017-May-27 07:57N 57°21' W 005°38'0 0.0
2017-May-27 05:13N 57°21' W 005°38'0 0.0
2017-May-27 04:58N 57°21' W 005°38'0 0.0
2017-May-27 03:06N 57°21' W 005°38'0 0.0
2017-May-27 03:00N 57°21' W 005°38'0 0.0
2017-May-27 01:19N 57°21' W 005°38'0 0.1
2017-May-27 01:00N 57°21' W 005°38'0 0.0
2017-May-27 00:27N 57°21' W 005°38'0 0.0
2017-May-26 22:13N 57°21' W 005°38'0 0.0
2017-May-26 21:58N 57°21' W 005°38'0 0.0
2017-May-26 19:58N 57°21' W 005°38'0 0.0
2017-May-26 13:45N 57°21' W 005°38'0 0.0
2017-May-26 11:37N 57°21' W 005°38'0 0.0
2017-May-26 11:22N 57°21' W 005°38'0 0.0
2017-May-26 04:31N 57°21' W 005°38'0 0.0
2017-May-26 03:03N 57°21' W 005°38'0 0.0
2017-May-26 02:45N 57°21' W 005°38'0 0.0
2017-May-26 02:27N 57°21' W 005°38'0 0.0
2017-May-26 01:57N 57°21' W 005°38'0 0.0
2017-May-26 00:21N 57°21' W 005°38'0 0.0
2017-May-25 23:51N 57°21' W 005°38'0 0.0
2017-May-25 23:27N 57°21' W 005°38'0 0.0
2017-May-25 22:00N 57°21' W 005°38'0 0.0
2017-May-25 21:24N 57°21' W 005°38'0 0.0
2017-May-25 19:26N 57°21' W 005°38'2 2.4
2017-May-25 18:44N 57°21' W 005°41'1 4.9
2017-May-25 18:30N 57°22' W 005°41'1 2.7
2017-May-25 18:00N 57°21' W 005°41'1 2.8
2017-May-25 17:30N 57°21' W 005°43'1 1.0
2017-May-25 16:59N 57°21' W 005°44'2 3.1
2017-May-25 16:30N 57°22' W 005°42'2 0.6
2017-May-25 12:41N 57°21' W 005°38'0 0.0
2017-May-25 12:29N 57°21' W 005°38'0 0.0
2017-May-25 11:58N 57°21' W 005°38'0 0.0
2017-May-25 11:26N 57°21' W 005°38'0 0.0
2017-May-25 11:00N 57°21' W 005°38'0 0.0
2017-May-25 10:29N 57°21' W 005°38'1 2.5
2017-May-25 10:00N 57°21' W 005°40'3 6.4
2017-May-25 09:30N 57°20' W 005°46'3 6.4
2017-May-25 08:59N 57°20' W 005°52'6 5.5
2017-May-25 07:58N 57°18' W 006°02'2 3.2
2017-May-25 07:21N 57°17' W 005°60'0 0.0
2017-May-25 06:30N 57°17' W 005°60'0 0.0
2017-May-25 05:45N 57°17' W 005°60'0 0.0
2017-May-25 05:28N 57°17' W 005°60'0 0.0
2017-May-25 04:18N 57°17' W 005°60'0 0.0
2017-May-25 03:54N 57°17' W 005°60'0 0.0
2017-May-25 03:24N 57°17' W 005°60'0 0.0
2017-May-25 03:00N 57°17' W 005°60'0 0.0
2017-May-25 02:30N 57°17' W 005°60'0 0.0
2017-May-25 02:00N 57°17' W 005°60'0 0.0
2017-May-25 01:24N 57°17' W 005°60'0 0.0
2017-May-25 01:00N 57°17' W 005°60'0 0.0
2017-May-25 00:27N 57°17' W 005°60'0 0.0
2017-May-24 23:59N 57°17' W 005°60'0 0.0
2017-May-24 23:27N 57°17' W 005°60'0 0.0
2017-May-24 22:54N 57°17' W 005°60'0 0.0
2017-May-24 22:29N 57°17' W 005°60'0 0.0
2017-May-24 21:56N 57°17' W 005°60'0 0.0
2017-May-24 21:25N 57°17' W 005°60'0 0.0
2017-May-24 20:58N 57°17' W 005°60'0 0.0
2017-May-24 20:25N 57°17' W 005°60'0 0.0
2017-May-24 19:55N 57°17' W 005°60'0 0.0
2017-May-24 19:24N 57°17' W 005°60'0 0.0
2017-May-24 18:57N 57°17' W 005°60'0 0.0
2017-May-24 18:28N 57°17' W 005°60'0 0.0
2017-May-24 17:52N 57°17' W 005°60'0 0.0
2017-May-24 16:46N 57°17' W 005°60'0 0.4
2017-May-24 16:30N 57°17' W 005°60'1 2.1
2017-May-24 15:57N 57°17' W 006°01'7 1.3
2017-May-24 10:23N 57°24' W 005°55'2 5.3
2017-May-24 09:58N 57°22' W 005°53'3 5.3
2017-May-24 09:20N 57°19' W 005°55'2 6.4
2017-May-24 08:59N 57°16' W 005°54'2 3.0
2017-May-24 08:28N 57°15' W 005°54'0 0.0
2017-May-24 07:58N 57°15' W 005°54'0 0.0
2017-May-24 07:25N 57°15' W 005°54'0 0.0
2017-May-24 06:58N 57°15' W 005°54'0 0.0
2017-May-24 06:25N 57°15' W 005°54'0 0.0
2017-May-24 05:58N 57°15' W 005°54'0 0.0
2017-May-24 05:28N 57°15' W 005°54'0 0.0
2017-May-24 04:58N 57°15' W 005°54'0 0.0
2017-May-24 04:28N 57°15' W 005°54'0 0.0
2017-May-24 03:58N 57°15' W 005°54'0 0.0
2017-May-24 03:28N 57°15' W 005°54'0 0.0
2017-May-24 02:55N 57°15' W 005°54'0 0.0
2017-May-24 02:28N 57°15' W 005°54'0 0.0
2017-May-24 01:58N 57°15' W 005°54'0 0.0
2017-May-24 01:28N 57°15' W 005°54'0 0.0
2017-May-24 00:58N 57°15' W 005°54'0 0.0
2017-May-24 00:28N 57°15' W 005°54'0 0.0
2017-May-23 23:59N 57°15' W 005°54'0 0.0
2017-May-23 23:28N 57°15' W 005°54'0 0.0
2017-May-23 22:59N 57°15' W 005°54'0 0.0
2017-May-23 22:22N 57°15' W 005°54'0 0.0
2017-May-23 21:52N 57°15' W 005°54'0 0.0
2017-May-23 21:28N 57°15' W 005°54'0 0.0
2017-May-23 20:57N 57°15' W 005°54'0 0.0
2017-May-23 20:27N 57°15' W 005°54'0 0.0
2017-May-23 20:00N 57°15' W 005°54'0 0.0
2017-May-23 19:30N 57°15' W 005°54'0 0.0
2017-May-23 19:00N 57°15' W 005°54'2 3.8
2017-May-23 18:30N 57°17' W 005°53'3 6.7
2017-May-23 17:59N 57°19' W 005°50'2 3.6
2017-May-23 17:30N 57°19' W 005°46'2 3.2
2017-May-23 17:00N 57°21' W 005°44'2 3.5
2017-May-23 16:29N 57°21' W 005°41'2 2.9
2017-May-23 15:56N 57°21' W 005°38'0 0.0
2017-May-23 15:22N 57°21' W 005°38'0 0.0
2017-May-23 14:40N 57°21' W 005°38'0 0.0
2017-May-23 14:26N 57°21' W 005°38'0 0.0
2017-May-23 12:22N 57°21' W 005°38'0 0.0
2017-May-23 10:58N 57°21' W 005°38'0 0.0
2017-May-23 06:19N 57°21' W 005°38'0 0.0
2017-May-23 03:02N 57°21' W 005°38'0 0.0
2017-May-23 02:37N 57°21' W 005°38'0 0.0
2017-May-23 00:49N 57°21' W 005°38'0 0.0
2017-May-23 00:22N 57°21' W 005°38'0 0.0
2017-May-22 23:55N 57°21' W 005°38'0 0.0
2017-May-22 23:25N 57°21' W 005°38'0 0.0
2017-May-22 22:40N 57°21' W 005°38'0 0.0
2017-May-22 22:22N 57°21' W 005°38'0 0.0
2017-May-22 20:22N 57°21' W 005°38'0 0.0
2017-May-22 18:31N 57°21' W 005°38'0 0.0
2017-May-22 18:25N 57°21' W 005°38'0 0.0
2017-May-22 17:49N 57°21' W 005°38'0 0.0
2017-May-22 17:23N 57°21' W 005°38'0 0.0
2017-May-22 16:55N 57°21' W 005°38'0 0.0
2017-May-22 16:16N 57°21' W 005°38'0 0.0
2017-May-22 14:46N 57°21' W 005°38'0 0.0
2017-May-22 14:28N 57°21' W 005°38'0 0.0
2017-May-22 12:02N 57°21' W 005°38'0 0.1
2017-May-22 11:59N 57°21' W 005°38'0 0.0
2017-May-22 11:20N 57°21' W 005°38'0 0.0
2017-May-22 10:35N 57°21' W 005°38'0 0.0
2017-May-22 09:52N 57°21' W 005°38'0 0.0
2017-May-22 08:01N 57°21' W 005°38'0 0.0
2017-May-22 07:43N 57°21' W 005°38'0 0.0
2017-May-22 07:25N 57°21' W 005°38'0 0.0
2017-May-22 03:40N 57°21' W 005°38'0 0.0
2017-May-22 03:13N 57°21' W 005°38'0 0.0
2017-May-22 02:55N 57°21' W 005°38'0 0.1
2017-May-22 02:28N 57°21' W 005°38'0 0.0
2017-May-22 01:55N 57°21' W 005°38'0 0.0
2017-May-22 01:25N 57°21' W 005°38'0 0.0
2017-May-22 00:46N 57°21' W 005°38'0 0.0
2017-May-22 00:19N 57°21' W 005°38'0 0.0
2017-May-21 23:58N 57°21' W 005°38'0 0.0
2017-May-21 23:28N 57°21' W 005°38'0 0.0
2017-May-21 22:54N 57°21' W 005°38'0 0.0
2017-May-21 22:24N 57°21' W 005°38'0 0.0
2017-May-21 22:00N 57°21' W 005°38'0 0.0
2017-May-21 20:39N 57°21' W 005°38'0 0.0
2017-May-21 19:09N 57°21' W 005°38'0 0.0
2017-May-21 18:49N 57°21' W 005°38'0 0.0
2017-May-21 18:30N 57°21' W 005°38'0 0.0
2017-May-21 15:34N 57°21' W 005°38'0 0.0
2017-May-21 15:21N 57°21' W 005°38'0 0.0
2017-May-21 14:54N 57°21' W 005°38'0 0.0
2017-May-21 14:18N 57°21' W 005°38'0 0.0
2017-May-21 12:54N 57°21' W 005°38'0 0.0
2017-May-21 12:18N 57°21' W 005°38'0 0.0
2017-May-21 11:12N 57°21' W 005°38'0 0.0
2017-May-21 10:51N 57°21' W 005°38'0 0.0
2017-May-21 09:21N 57°21' W 005°38'0 0.0
2017-May-21 08:49N 57°21' W 005°38'0 0.0
2017-May-21 08:27N 57°21' W 005°38'0 0.0
2017-May-21 04:10N 57°21' W 005°38'0 0.0
2017-May-21 03:12N 57°21' W 005°38'0 0.0
2017-May-21 03:00N 57°21' W 005°38'0 0.0
2017-May-21 02:06N 57°21' W 005°38'0 0.0
2017-May-21 01:42N 57°21' W 005°38'0 0.0
2017-May-21 01:30N 57°21' W 005°38'0 0.0
2017-May-21 00:43N 57°21' W 005°38'0 0.0
2017-May-21 00:22N 57°21' W 005°38'0 0.0
2017-May-20 23:55N 57°21' W 005°38'0 0.0
2017-May-20 23:28N 57°21' W 005°38'0 0.0
2017-May-20 22:31N 57°21' W 005°38'0 0.1
2017-May-20 22:28N 57°21' W 005°38'0 0.0
2017-May-20 21:59N 57°21' W 005°38'0 0.0
2017-May-20 14:05N 57°21' W 005°38'0 0.0
2017-May-20 13:25N 57°21' W 005°38'0 0.0
2017-May-20 12:52N 57°21' W 005°38'0 0.0
2017-May-20 11:40N 57°21' W 005°38'0 0.0
2017-May-20 11:28N 57°21' W 005°38'0 0.0
2017-May-20 10:52N 57°21' W 005°38'0 0.0
2017-May-20 10:28N 57°21' W 005°38'0 0.8
2017-May-20 09:59N 57°21' W 005°38'3 5.9
2017-May-20 09:30N 57°21' W 005°44'3 5.6
2017-May-20 09:00N 57°21' W 005°49'4 6.1
2017-May-20 08:16N 57°25' W 005°53'4 0.2
2017-May-19 10:39N 57°21' W 005°54'1 5.4
2017-May-19 10:28N 57°20' W 005°53'3 5.6
2017-May-19 10:00N 57°19' W 005°50'3 6.2
2017-May-19 09:30N 57°17' W 005°45'2 2.9
2017-May-19 08:59N 57°16' W 005°42'1 1.0
2017-May-19 08:20N 57°16' W 005°44'0 0.0
2017-May-19 07:53N 57°16' W 005°44'0 0.0
2017-May-19 07:05N 57°16' W 005°44'0 0.1
2017-May-19 06:59N 57°16' W 005°44'0 0.0
2017-May-19 06:11N 57°16' W 005°44'0 0.0
2017-May-19 05:41N 57°16' W 005°44'0 0.0
2017-May-19 02:32N 57°16' W 005°43'0 0.0
2017-May-19 02:23N 57°16' W 005°43'0 0.0
2017-May-19 01:20N 57°16' W 005°43'0 0.0
2017-May-19 00:59N 57°16' W 005°43'0 0.0
2017-May-19 00:29N 57°16' W 005°44'0 0.0
2017-May-18 23:56N 57°16' W 005°43'0 0.0
2017-May-18 23:23N 57°16' W 005°43'0 0.0
2017-May-18 22:56N 57°16' W 005°43'0 0.0
2017-May-18 22:29N 57°16' W 005°43'0 0.0
2017-May-18 18:22N 57°16' W 005°43'1 2.1
2017-May-18 17:59N 57°17' W 005°44'3 6.5
2017-May-18 17:29N 57°20' W 005°46'2 3.6
2017-May-18 17:00N 57°21' W 005°44'3 5.1
2017-May-18 16:29N 57°21' W 005°39'  
Track history (hours):
 
Tides and Currents Weather Stations Pressure Air Temp Water Temp Dewpoint Dewpoint Depression Visibility Wind Speed Wind Dir Waves Ship Positions

Ocean Spirit of Moray (United Kingdom)

Ship's website: http://www.gordonstoun.org.uk/

Last reported at 2017-May-28 07:51 UTC. Time now 2017-May-29 11:27 UTC.
Position N 57°21' W 005°38'.

Length 24 m; draft 3 m.

Type: Sailing vessel. MMSI: 232007590.

Date/timePositionNaut miles runAvg speedWind from/ knotsBaromVisibWave heightAir tempDewpointWater temp
2017-May-28 07:51N 57°21' W 005°38'0 0.0
2017-May-28 07:16N 57°21' W 005°38'0 0.0
2017-May-28 07:00N 57°21' W 005°38'0 0.1
2017-May-28 06:25N 57°21' W 005°38'0 0.0
2017-May-28 05:57N 57°21' W 005°38'0 0.0
2017-May-28 05:24N 57°21' W 005°38'0 0.0
2017-May-28 05:00N 57°21' W 005°38'0 0.1
2017-May-28 04:30N 57°21' W 005°38'0 0.0
2017-May-28 03:54N 57°21' W 005°38'0 0.0
2017-May-28 03:30N 57°21' W 005°38'0 0.0
2017-May-28 02:57N 57°21' W 005°38'0 0.0
2017-May-28 02:30N 57°21' W 005°38'0 0.0
2017-May-28 01:57N 57°21' W 005°38'0 0.0
2017-May-28 01:30N 57°21' W 005°38'0 0.0
2017-May-28 00:51N 57°21' W 005°38'0 0.0
2017-May-28 00:30N 57°21' W 005°38'0 0.0
2017-May-27 23:54N 57°21' W 005°38'0 0.0
2017-May-27 23:28N 57°21' W 005°38'0 0.0
2017-May-27 22:57N 57°21' W 005°38'0 0.0
2017-May-27 22:28N 57°21' W 005°38'0 0.0
2017-May-27 21:54N 57°21' W 005°38'0 0.0
2017-May-27 21:28N 57°21' W 005°38'0 0.0
2017-May-27 20:57N 57°21' W 005°38'0 0.0
2017-May-27 20:27N 57°21' W 005°38'0 0.0
2017-May-27 17:34N 57°21' W 005°38'0 0.1
2017-May-27 17:24N 57°21' W 005°38'0 0.0
2017-May-27 15:48N 57°21' W 005°38'0 0.0
2017-May-27 15:30N 57°21' W 005°38'0 0.0
2017-May-27 13:43N 57°21' W 005°38'0 0.0
2017-May-27 12:54N 57°21' W 005°38'0 0.0
2017-May-27 10:48N 57°21' W 005°38'0 0.0
2017-May-27 07:57N 57°21' W 005°38'0 0.0
2017-May-27 05:13N 57°21' W 005°38'0 0.0
2017-May-27 04:58N 57°21' W 005°38'0 0.0
2017-May-27 03:06N 57°21' W 005°38'0 0.0
2017-May-27 03:00N 57°21' W 005°38'0 0.0
2017-May-27 01:19N 57°21' W 005°38'0 0.1
2017-May-27 01:00N 57°21' W 005°38'0 0.0
2017-May-27 00:27N 57°21' W 005°38'0 0.0
2017-May-26 22:13N 57°21' W 005°38'0 0.0
2017-May-26 21:58N 57°21' W 005°38'0 0.0
2017-May-26 19:58N 57°21' W 005°38'0 0.0
2017-May-26 13:45N 57°21' W 005°38'0 0.0
2017-May-26 11:37N 57°21' W 005°38'0 0.0
2017-May-26 11:22N 57°21' W 005°38'0 0.0
2017-May-26 04:31N 57°21' W 005°38'0 0.0
2017-May-26 03:03N 57°21' W 005°38'0 0.0
2017-May-26 02:45N 57°21' W 005°38'0 0.0
2017-May-26 02:27N 57°21' W 005°38'0 0.0
2017-May-26 01:57N 57°21' W 005°38'0 0.0
2017-May-26 00:21N 57°21' W 005°38'0 0.0
2017-May-25 23:51N 57°21' W 005°38'0 0.0
2017-May-25 23:27N 57°21' W 005°38'0 0.0
2017-May-25 22:00N 57°21' W 005°38'0 0.0
2017-May-25 21:24N 57°21' W 005°38'0 0.0
2017-May-25 19:26N 57°21' W 005°38'2 2.4
2017-May-25 18:44N 57°21' W 005°41'1 4.9
2017-May-25 18:30N 57°22' W 005°41'1 2.7
2017-May-25 18:00N 57°21' W 005°41'1 2.8
2017-May-25 17:30N 57°21' W 005°43'1 1.0
2017-May-25 16:59N 57°21' W 005°44'2 3.1
2017-May-25 16:30N 57°22' W 005°42'2 0.6
2017-May-25 12:41N 57°21' W 005°38'0 0.0
2017-May-25 12:29N 57°21' W 005°38'0 0.0
2017-May-25 11:58N 57°21' W 005°38'0 0.0
2017-May-25 11:26N 57°21' W 005°38'0 0.0
2017-May-25 11:00N 57°21' W 005°38'0 0.0
2017-May-25 10:29N 57°21' W 005°38'1 2.5
2017-May-25 10:00N 57°21' W 005°40'3 6.4
2017-May-25 09:30N 57°20' W 005°46'3 6.4
2017-May-25 08:59N 57°20' W 005°52'6 5.5
2017-May-25 07:58N 57°18' W 006°02'2 3.2
2017-May-25 07:21N 57°17' W 005°60'0 0.0
2017-May-25 06:30N 57°17' W 005°60'0 0.0
2017-May-25 05:45N 57°17' W 005°60'0 0.0
2017-May-25 05:28N 57°17' W 005°60'0 0.0
2017-May-25 04:18N 57°17' W 005°60'0 0.0
2017-May-25 03:54N 57°17' W 005°60'0 0.0
2017-May-25 03:24N 57°17' W 005°60'0 0.0
2017-May-25 03:00N 57°17' W 005°60'0 0.0
2017-May-25 02:30N 57°17' W 005°60'0 0.0
2017-May-25 02:00N 57°17' W 005°60'0 0.0
2017-May-25 01:24N 57°17' W 005°60'0 0.0
2017-May-25 01:00N 57°17' W 005°60'0 0.0
2017-May-25 00:27N 57°17' W 005°60'0 0.0
2017-May-24 23:59N 57°17' W 005°60'0 0.0
2017-May-24 23:27N 57°17' W 005°60'0 0.0
2017-May-24 22:54N 57°17' W 005°60'0 0.0
2017-May-24 22:29N 57°17' W 005°60'0 0.0
2017-May-24 21:56N 57°17' W 005°60'0 0.0
2017-May-24 21:25N 57°17' W 005°60'0 0.0
2017-May-24 20:58N 57°17' W 005°60'0 0.0
2017-May-24 20:25N 57°17' W 005°60'0 0.0
2017-May-24 19:55N 57°17' W 005°60'0 0.0
2017-May-24 19:24N 57°17' W 005°60'0 0.0
2017-May-24 18:57N 57°17' W 005°60'0 0.0
2017-May-24 18:28N 57°17' W 005°60'0 0.0
2017-May-24 17:52N 57°17' W 005°60'0 0.0
2017-May-24 16:46N 57°17' W 005°60'0 0.4
2017-May-24 16:30N 57°17' W 005°60'1 2.1
2017-May-24 15:57N 57°17' W 006°01'7 1.3
2017-May-24 10:23N 57°24' W 005°55'2 5.3
2017-May-24 09:58N 57°22' W 005°53'3 5.3
2017-May-24 09:20N 57°19' W 005°55'2 6.4
2017-May-24 08:59N 57°16' W 005°54'2 3.0
2017-May-24 08:28N 57°15' W 005°54'0 0.0
2017-May-24 07:58N 57°15' W 005°54'0 0.0
2017-May-24 07:25N 57°15' W 005°54'0 0.0
2017-May-24 06:58N 57°15' W 005°54'0 0.0
2017-May-24 06:25N 57°15' W 005°54'0 0.0
2017-May-24 05:58N 57°15' W 005°54'0 0.0
2017-May-24 05:28N 57°15' W 005°54'0 0.0
2017-May-24 04:58N 57°15' W 005°54'0 0.0
2017-May-24 04:28N 57°15' W 005°54'0 0.0
2017-May-24 03:58N 57°15' W 005°54'0 0.0
2017-May-24 03:28N 57°15' W 005°54'0 0.0
2017-May-24 02:55N 57°15' W 005°54'0 0.0
2017-May-24 02:28N 57°15' W 005°54'0 0.0
2017-May-24 01:58N 57°15' W 005°54'0 0.0
2017-May-24 01:28N 57°15' W 005°54'0 0.0
2017-May-24 00:58N 57°15' W 005°54'0 0.0
2017-May-24 00:28N 57°15' W 005°54'0 0.0
2017-May-23 23:59N 57°15' W 005°54'0 0.0
2017-May-23 23:28N 57°15' W 005°54'0 0.0
2017-May-23 22:59N 57°15' W 005°54'0 0.0
2017-May-23 22:22N 57°15' W 005°54'0 0.0
2017-May-23 21:52N 57°15' W 005°54'0 0.0
2017-May-23 21:28N 57°15' W 005°54'0 0.0
2017-May-23 20:57N 57°15' W 005°54'0 0.0
2017-May-23 20:27N 57°15' W 005°54'0 0.0
2017-May-23 20:00N 57°15' W 005°54'0 0.0
2017-May-23 19:30N 57°15' W 005°54'0 0.0
2017-May-23 19:00N 57°15' W 005°54'2 3.8
2017-May-23 18:30N 57°17' W 005°53'3 6.7
2017-May-23 17:59N 57°19' W 005°50'2 3.6
2017-May-23 17:30N 57°19' W 005°46'2 3.2
2017-May-23 17:00N 57°21' W 005°44'2 3.5
2017-May-23 16:29N 57°21' W 005°41'2 2.9
2017-May-23 15:56N 57°21' W 005°38'0 0.0
2017-May-23 15:22N 57°21' W 005°38'0 0.0
2017-May-23 14:40N 57°21' W 005°38'0 0.0
2017-May-23 14:26N 57°21' W 005°38'0 0.0
2017-May-23 12:22N 57°21' W 005°38'0 0.0
2017-May-23 10:58N 57°21' W 005°38'0 0.0
2017-May-23 06:19N 57°21' W 005°38'0 0.0
2017-May-23 03:02N 57°21' W 005°38'0 0.0
2017-May-23 02:37N 57°21' W 005°38'0 0.0
2017-May-23 00:49N 57°21' W 005°38'0 0.0
2017-May-23 00:22N 57°21' W 005°38'0 0.0
2017-May-22 23:55N 57°21' W 005°38'0 0.0
2017-May-22 23:25N 57°21' W 005°38'0 0.0
2017-May-22 22:40N 57°21' W 005°38'0 0.0
2017-May-22 22:22N 57°21' W 005°38'0 0.0
2017-May-22 20:22N 57°21' W 005°38'0 0.0
2017-May-22 18:31N 57°21' W 005°38'0 0.0
2017-May-22 18:25N 57°21' W 005°38'0 0.0
2017-May-22 17:49N 57°21' W 005°38'0 0.0
2017-May-22 17:23N 57°21' W 005°38'0 0.0
2017-May-22 16:55N 57°21' W 005°38'0 0.0
2017-May-22 16:16N 57°21' W 005°38'0 0.0
2017-May-22 14:46N 57°21' W 005°38'0 0.0
2017-May-22 14:28N 57°21' W 005°38'0 0.0
2017-May-22 12:02N 57°21' W 005°38'0 0.1
2017-May-22 11:59N 57°21' W 005°38'0 0.0
2017-May-22 11:20N 57°21' W 005°38'0 0.0
2017-May-22 10:35N 57°21' W 005°38'0 0.0
2017-May-22 09:52N 57°21' W 005°38'0 0.0
2017-May-22 08:01N 57°21' W 005°38'0 0.0
2017-May-22 07:43N 57°21' W 005°38'0 0.0
2017-May-22 07:25N 57°21' W 005°38'0 0.0
2017-May-22 03:40N 57°21' W 005°38'0 0.0
2017-May-22 03:13N 57°21' W 005°38'0 0.0
2017-May-22 02:55N 57°21' W 005°38'0 0.1
2017-May-22 02:28N 57°21' W 005°38'0 0.0
2017-May-22 01:55N 57°21' W 005°38'0 0.0
2017-May-22 01:25N 57°21' W 005°38'0 0.0
2017-May-22 00:46N 57°21' W 005°38'0 0.0
2017-May-22 00:19N 57°21' W 005°38'0 0.0
2017-May-21 23:58N 57°21' W 005°38'0 0.0
2017-May-21 23:28N 57°21' W 005°38'0 0.0
2017-May-21 22:54N 57°21' W 005°38'0 0.0
2017-May-21 22:24N 57°21' W 005°38'0 0.0
2017-May-21 22:00N 57°21' W 005°38'0 0.0
2017-May-21 20:39N 57°21' W 005°38'0 0.0
2017-May-21 19:09N 57°21' W 005°38'0 0.0
2017-May-21 18:49N 57°21' W 005°38'0 0.0
2017-May-21 18:30N 57°21' W 005°38'0 0.0
2017-May-21 15:34N 57°21' W 005°38'0 0.0
2017-May-21 15:21N 57°21' W 005°38'0 0.0
2017-May-21 14:54N 57°21' W 005°38'0 0.0
2017-May-21 14:18N 57°21' W 005°38'0 0.0
2017-May-21 12:54N 57°21' W 005°38'0 0.0
2017-May-21 12:18N 57°21' W 005°38'0 0.0
2017-May-21 11:12N 57°21' W 005°38'0 0.0
2017-May-21 10:51N 57°21' W 005°38'0 0.0
2017-May-21 09:21N 57°21' W 005°38'0 0.0
2017-May-21 08:49N 57°21' W 005°38'0 0.0
2017-May-21 08:27N 57°21' W 005°38'0 0.0
2017-May-21 04:10N 57°21' W 005°38'0 0.0
2017-May-21 03:12N 57°21' W 005°38'0 0.0
2017-May-21 03:00N 57°21' W 005°38'0 0.0
2017-May-21 02:06N 57°21' W 005°38'0 0.0
2017-May-21 01:42N 57°21' W 005°38'0 0.0
2017-May-21 01:30N 57°21' W 005°38'0 0.0
2017-May-21 00:43N 57°21' W 005°38'0 0.0
2017-May-21 00:22N 57°21' W 005°38'0 0.0
2017-May-20 23:55N 57°21' W 005°38'0 0.0
2017-May-20 23:28N 57°21' W 005°38'0 0.0
2017-May-20 22:31N 57°21' W 005°38'0 0.1
2017-May-20 22:28N 57°21' W 005°38'0 0.0
2017-May-20 21:59N 57°21' W 005°38'0 0.0
2017-May-20 14:05N 57°21' W 005°38'0 0.0
2017-May-20 13:25N 57°21' W 005°38'0 0.0
2017-May-20 12:52N 57°21' W 005°38'0 0.0
2017-May-20 11:40N 57°21' W 005°38'0 0.0
2017-May-20 11:28N 57°21' W 005°38'0 0.0
2017-May-20 10:52N 57°21' W 005°38'0 0.0
2017-May-20 10:28N 57°21' W 005°38'0 0.8
2017-May-20 09:59N 57°21' W 005°38'3 5.9
2017-May-20 09:30N 57°21' W 005°44'3 5.6
2017-May-20 09:00N 57°21' W 005°49'4 6.1
2017-May-20 08:16N 57°25' W 005°53'4 0.2
2017-May-19 10:39N 57°21' W 005°54'1 5.4
2017-May-19 10:28N 57°20' W 005°53'3 5.6
2017-May-19 10:00N 57°19' W 005°50'3 6.2
2017-May-19 09:30N 57°17' W 005°45'2 2.9
2017-May-19 08:59N 57°16' W 005°42'1 1.0
2017-May-19 08:20N 57°16' W 005°44'0 0.0
2017-May-19 07:53N 57°16' W 005°44'0 0.0
2017-May-19 07:05N 57°16' W 005°44'0 0.1
2017-May-19 06:59N 57°16' W 005°44'0 0.0
2017-May-19 06:11N 57°16' W 005°44'0 0.0
2017-May-19 05:41N 57°16' W 005°44'0 0.0
2017-May-19 02:32N 57°16' W 005°43'0 0.0
2017-May-19 02:23N 57°16' W 005°43'0 0.0
2017-May-19 01:20N 57°16' W 005°43'0 0.0
2017-May-19 00:59N 57°16' W 005°43'0 0.0
2017-May-19 00:29N 57°16' W 005°44'0 0.0
2017-May-18 23:56N 57°16' W 005°43'0 0.0
2017-May-18 23:23N 57°16' W 005°43'0 0.0
2017-May-18 22:56N 57°16' W 005°43'0 0.0
2017-May-18 22:29N 57°16' W 005°43'0 0.0
2017-May-18 18:22N 57°16' W 005°43'1 2.1
2017-May-18 17:59N 57°17' W 005°44'3 6.5
2017-May-18 17:29N 57°20' W 005°46'2 3.6
2017-May-18 17:00N 57°21' W 005°44'3 5.1
2017-May-18 16:29N 57°21' W 005°39'  

Dump ship's entire track history